sensor_id;sensor_type;location;lat;lon;timestamp;pressure;altitude;pressure_sealevel;temperature;humidity
4022;BME280;2025;48.260;16.432;2023-07-31T00:01:20;99729.97;;;18.02;71.44
4022;BME280;2025;48.260;16.432;2023-07-31T00:03:47;99727.91;;;18.04;70.68
4022;BME280;2025;48.260;16.432;2023-07-31T00:06:14;99727.00;;;17.92;71.93
4022;BME280;2025;48.260;16.432;2023-07-31T00:08:42;99735.22;;;17.90;72.68
4022;BME280;2025;48.260;16.432;2023-07-31T00:11:09;99736.41;;;17.94;71.13
4022;BME280;2025;48.260;16.432;2023-07-31T00:13:36;99733.63;;;17.82;72.29
4022;BME280;2025;48.260;16.432;2023-07-31T00:16:03;99731.38;;;17.86;71.50
4022;BME280;2025;48.260;16.432;2023-07-31T00:18:30;99731.38;;;17.86;71.14
4022;BME280;2025;48.260;16.432;2023-07-31T00:20:57;99731.78;;;17.83;70.65
4022;BME280;2025;48.260;16.432;2023-07-31T00:23:24;99728.72;;;17.79;71.71
4022;BME280;2025;48.260;16.432;2023-07-31T00:25:52;99733.25;;;17.79;70.87
4022;BME280;2025;48.260;16.432;2023-07-31T00:28:19;99731.19;;;17.81;71.14
4022;BME280;2025;48.260;16.432;2023-07-31T00:30:46;99737.16;;;17.76;71.22
4022;BME280;2025;48.260;16.432;2023-07-31T00:33:13;99737.16;;;17.76;71.69
4022;BME280;2025;48.260;16.432;2023-07-31T00:35:40;99740.97;;;17.87;71.03
4022;BME280;2025;48.260;16.432;2023-07-31T00:38:07;99734.63;;;17.88;71.26
4022;BME280;2025;48.260;16.432;2023-07-31T00:40:35;99734.09;;;17.73;73.37
4022;BME280;2025;48.260;16.432;2023-07-31T00:43:04;99734.22;;;17.53;74.18
4022;BME280;2025;48.260;16.432;2023-07-31T00:45:31;99728.97;;;17.46;74.62
4022;BME280;2025;48.260;16.432;2023-07-31T00:47:59;99722.47;;;17.35;75.12
4022;BME280;2025;48.260;16.432;2023-07-31T00:50:27;99734.00;;;17.22;76.40
4022;BME280;2025;48.260;16.432;2023-07-31T00:52:55;99733.91;;;17.04;76.96
4022;BME280;2025;48.260;16.432;2023-07-31T00:55:22;99744.38;;;16.92;77.38
4022;BME280;2025;48.260;16.432;2023-07-31T00:57:49;99751.56;;;16.78;78.07
4022;BME280;2025;48.260;16.432;2023-07-31T01:00:19;99743.81;;;16.70;78.92
4022;BME280;2025;48.260;16.432;2023-07-31T01:02:46;99749.53;;;16.74;78.80
4022;BME280;2025;48.260;16.432;2023-07-31T01:05:14;99744.00;;;16.69;79.09
4022;BME280;2025;48.260;16.432;2023-07-31T01:07:47;99746.50;;;16.50;79.61
4022;BME280;2025;48.260;16.432;2023-07-31T01:10:18;99746.94;;;16.40;80.07
4022;BME280;2025;48.260;16.432;2023-07-31T01:12:48;99749.03;;;16.25;80.43
4022;BME280;2025;48.260;16.432;2023-07-31T01:15:15;99752.31;;;16.14;80.80
4022;BME280;2025;48.260;16.432;2023-07-31T01:17:44;99743.09;;;16.03;81.37
4022;BME280;2025;48.260;16.432;2023-07-31T01:20:13;99760.69;;;15.97;82.00
4022;BME280;2025;48.260;16.432;2023-07-31T01:22:58;99753.72;;;15.96;82.14
4022;BME280;2025;48.260;16.432;2023-07-31T01:25:47;99741.88;;;15.99;80.97
4022;BME280;2025;48.260;16.432;2023-07-31T01:28:20;99748.59;;;16.21;80.03
4022;BME280;2025;48.260;16.432;2023-07-31T01:30:48;99743.91;;;16.37;79.33
4022;BME280;2025;48.260;16.432;2023-07-31T01:33:15;99741.00;;;16.45;78.66
4022;BME280;2025;48.260;16.432;2023-07-31T01:35:45;99742.25;;;16.42;79.08
4022;BME280;2025;48.260;16.432;2023-07-31T01:38:13;99747.72;;;16.54;78.24
4022;BME280;2025;48.260;16.432;2023-07-31T01:40:41;99741.19;;;16.50;78.24
4022;BME280;2025;48.260;16.432;2023-07-31T01:43:10;99745.09;;;16.48;78.17
4022;BME280;2025;48.260;16.432;2023-07-31T01:45:37;99733.44;;;16.42;78.12
4022;BME280;2025;48.260;16.432;2023-07-31T01:48:04;99739.75;;;16.48;76.51
4022;BME280;2025;48.260;16.432;2023-07-31T01:50:31;99740.81;;;16.47;76.48
4022;BME280;2025;48.260;16.432;2023-07-31T01:52:58;99744.69;;;16.51;77.91
4022;BME280;2025;48.260;16.432;2023-07-31T01:55:25;99747.34;;;16.51;76.27
4022;BME280;2025;48.260;16.432;2023-07-31T01:57:52;99743.47;;;16.47;78.04
4022;BME280;2025;48.260;16.432;2023-07-31T02:00:20;99747.78;;;16.41;78.16
4022;BME280;2025;48.260;16.432;2023-07-31T02:02:47;99754.34;;;16.25;79.36
4022;BME280;2025;48.260;16.432;2023-07-31T02:05:14;99761.09;;;16.28;78.75
4022;BME280;2025;48.260;16.432;2023-07-31T02:07:41;99760.28;;;16.20;79.04
4022;BME280;2025;48.260;16.432;2023-07-31T02:10:08;99758.63;;;16.19;78.04
4022;BME280;2025;48.260;16.432;2023-07-31T02:12:35;99763.75;;;16.28;78.05
4022;BME280;2025;48.260;16.432;2023-07-31T02:15:03;99758.81;;;16.25;79.27
4022;BME280;2025;48.260;16.432;2023-07-31T02:17:31;99757.19;;;16.23;78.60
4022;BME280;2025;48.260;16.432;2023-07-31T02:19:58;99757.81;;;16.19;78.25
4022;BME280;2025;48.260;16.432;2023-07-31T02:22:25;99768.63;;;16.31;77.69
4022;BME280;2025;48.260;16.432;2023-07-31T02:24:50;99767.59;;;16.38;77.79
4022;BME280;2025;48.260;16.432;2023-07-31T02:27:17;99762.69;;;16.35;78.53
4022;BME280;2025;48.260;16.432;2023-07-31T02:29:44;99763.31;;;16.37;76.95
4022;BME280;2025;48.260;16.432;2023-07-31T02:32:11;99764.72;;;16.40;77.56
4022;BME280;2025;48.260;16.432;2023-07-31T02:34:40;99764.34;;;16.36;77.01
4022;BME280;2025;48.260;16.432;2023-07-31T02:37:07;99767.41;;;16.40;77.82
4022;BME280;2025;48.260;16.432;2023-07-31T02:39:33;99772.09;;;16.38;77.58
4022;BME280;2025;48.260;16.432;2023-07-31T02:42:00;99772.09;;;16.38;77.40
4022;BME280;2025;48.260;16.432;2023-07-31T02:44:27;99780.88;;;16.38;76.32
4022;BME280;2025;48.260;16.432;2023-07-31T02:46:54;99775.34;;;16.47;76.64
4022;BME280;2025;48.260;16.432;2023-07-31T02:49:21;99771.91;;;16.46;76.66
4022;BME280;2025;48.260;16.432;2023-07-31T02:51:49;99774.94;;;16.56;75.44
4022;BME280;2025;48.260;16.432;2023-07-31T02:54:16;99777.56;;;16.63;75.34
4022;BME280;2025;48.260;16.432;2023-07-31T02:56:43;99770.03;;;16.60;75.14
4022;BME280;2025;48.260;16.432;2023-07-31T02:59:10;99773.91;;;16.57;74.88
4022;BME280;2025;48.260;16.432;2023-07-31T03:01:37;99787.16;;;16.64;74.72
4022;BME280;2025;48.260;16.432;2023-07-31T03:04:04;99781.84;;;16.64;75.11
4022;BME280;2025;48.260;16.432;2023-07-31T03:06:31;99776.16;;;16.67;74.83
4022;BME280;2025;48.260;16.432;2023-07-31T03:09:00;99787.41;;;16.62;74.48
4022;BME280;2025;48.260;16.432;2023-07-31T03:11:26;99790.06;;;16.62;74.42
4022;BME280;2025;48.260;16.432;2023-07-31T03:13:53;99790.88;;;16.63;75.44
4022;BME280;2025;48.260;16.432;2023-07-31T03:16:20;99792.53;;;16.57;75.52
4022;BME280;2025;48.260;16.432;2023-07-31T03:18:47;99793.16;;;16.39;76.60
4022;BME280;2025;48.260;16.432;2023-07-31T03:21:14;99794.38;;;16.43;76.80
4022;BME280;2025;48.260;16.432;2023-07-31T03:23:41;99792.97;;;16.41;74.89
4022;BME280;2025;48.260;16.432;2023-07-31T03:26:10;99797.44;;;16.40;76.36
4022;BME280;2025;48.260;16.432;2023-07-31T03:28:37;99802.38;;;16.43;76.34
4022;BME280;2025;48.260;16.432;2023-07-31T03:31:04;99803.16;;;16.51;74.28
4022;BME280;2025;48.260;16.432;2023-07-31T03:33:31;99804.59;;;16.53;74.18
4022;BME280;2025;48.260;16.432;2023-07-31T03:35:58;99801.69;;;16.61;74.43
4022;BME280;2025;48.260;16.432;2023-07-31T03:38:25;99803.97;;;16.64;73.02
4022;BME280;2025;48.260;16.432;2023-07-31T03:40:52;99803.13;;;16.64;73.79
4022;BME280;2025;48.260;16.432;2023-07-31T03:43:19;99804.34;;;16.68;73.44
4022;BME280;2025;48.260;16.432;2023-07-31T03:45:46;99806.19;;;16.68;73.28
4022;BME280;2025;48.260;16.432;2023-07-31T03:48:13;99805.78;;;16.71;72.95
4022;BME280;2025;48.260;16.432;2023-07-31T03:50:40;99804.34;;;16.75;74.15
4022;BME280;2025;48.260;16.432;2023-07-31T03:53:07;99805.38;;;16.74;74.99
4022;BME280;2025;48.260;16.432;2023-07-31T03:55:34;99808.44;;;16.71;75.10
4022;BME280;2025;48.260;16.432;2023-07-31T03:58:01;99817.84;;;16.73;74.33
4022;BME280;2025;48.260;16.432;2023-07-31T04:00:30;99819.50;;;16.74;72.63
4022;BME280;2025;48.260;16.432;2023-07-31T04:02:57;99823.59;;;16.83;73.62
4022;BME280;2025;48.260;16.432;2023-07-31T04:05:24;99815.56;;;16.97;70.91
4022;BME280;2025;48.260;16.432;2023-07-31T04:07:51;99817.81;;;17.00;71.01
4022;BME280;2025;48.260;16.432;2023-07-31T04:10:18;99824.31;;;17.11;68.57
4022;BME280;2025;48.260;16.432;2023-07-31T04:12:44;99813.00;;;17.28;69.47
4022;BME280;2025;48.260;16.432;2023-07-31T04:15:11;99813.97;;;17.34;69.39
4022;BME280;2025;48.260;16.432;2023-07-31T04:17:40;99813.34;;;17.39;69.65
4022;BME280;2025;48.260;16.432;2023-07-31T04:20:07;99817.47;;;17.41;70.26
4022;BME280;2025;48.260;16.432;2023-07-31T04:22:34;99812.06;;;17.48;69.61
4022;BME280;2025;48.260;16.432;2023-07-31T04:25:01;99816.56;;;17.54;69.64
4022;BME280;2025;48.260;16.432;2023-07-31T04:27:28;99808.13;;;17.57;69.11
4022;BME280;2025;48.260;16.432;2023-07-31T04:29:55;99804.69;;;17.50;70.97
4022;BME280;2025;48.260;16.432;2023-07-31T04:32:22;99802.22;;;17.55;70.18
4022;BME280;2025;48.260;16.432;2023-07-31T04:34:50;99796.91;;;17.55;71.02
4022;BME280;2025;48.260;16.432;2023-07-31T04:37:17;99796.81;;;17.68;70.23
4022;BME280;2025;48.260;16.432;2023-07-31T04:39:44;99805.19;;;17.72;70.50
4022;BME280;2025;48.260;16.432;2023-07-31T04:42:11;99803.94;;;17.81;70.85
4022;BME280;2025;48.260;16.432;2023-07-31T04:44:38;99808.00;;;17.84;71.48
4022;BME280;2025;48.260;16.432;2023-07-31T04:47:05;99804.47;;;17.90;70.70
4022;BME280;2025;48.260;16.432;2023-07-31T04:49:32;99798.94;;;17.92;70.85
4022;BME280;2025;48.260;16.432;2023-07-31T04:52:00;99806.50;;;17.95;70.97
4022;BME280;2025;48.260;16.432;2023-07-31T04:54:27;99811.88;;;17.88;71.91
4022;BME280;2025;48.260;16.432;2023-07-31T04:56:54;99812.09;;;17.86;73.00
4022;BME280;2025;48.260;16.432;2023-07-31T04:59:21;99808.59;;;17.93;72.83
4022;BME280;2025;48.260;16.432;2023-07-31T05:01:48;99815.47;;;18.00;72.81
4022;BME280;2025;48.260;16.432;2023-07-31T05:04:15;99814.19;;;18.09;72.54
4022;BME280;2025;48.260;16.432;2023-07-31T05:06:43;99813.09;;;18.17;71.61
4022;BME280;2025;48.260;16.432;2023-07-31T05:09:11;99812.06;;;18.18;71.95
4022;BME280;2025;48.260;16.432;2023-07-31T05:11:38;99821.25;;;18.22;73.62
4022;BME280;2025;48.260;16.432;2023-07-31T05:14:06;99818.28;;;18.37;72.23
4022;BME280;2025;48.260;16.432;2023-07-31T05:16:33;99817.16;;;18.45;71.12
4022;BME280;2025;48.260;16.432;2023-07-31T05:19:00;99815.41;;;18.57;72.11
4022;BME280;2025;48.260;16.432;2023-07-31T05:21:26;99813.41;;;18.71;70.48
4022;BME280;2025;48.260;16.432;2023-07-31T05:23:53;99817.91;;;18.77;71.06
4022;BME280;2025;48.260;16.432;2023-07-31T05:26:22;99812.06;;;18.87;70.08
4022;BME280;2025;48.260;16.432;2023-07-31T05:28:49;99814.22;;;18.97;68.89
4022;BME280;2025;48.260;16.432;2023-07-31T05:31:16;99818.34;;;19.11;67.91
4022;BME280;2025;48.260;16.432;2023-07-31T05:33:43;99814.66;;;19.12;67.68
4022;BME280;2025;48.260;16.432;2023-07-31T05:36:10;99833.88;;;19.02;68.62
4022;BME280;2025;48.260;16.432;2023-07-31T05:38:37;99826.06;;;18.82;70.02
4022;BME280;2025;48.260;16.432;2023-07-31T05:41:04;99828.53;;;18.84;68.83
4022;BME280;2025;48.260;16.432;2023-07-31T05:43:32;99826.59;;;18.91;68.04
4022;BME280;2025;48.260;16.432;2023-07-31T05:45:59;99828.16;;;18.99;68.58
4022;BME280;2025;48.260;16.432;2023-07-31T05:48:26;99829.16;;;19.16;68.23
4022;BME280;2025;48.260;16.432;2023-07-31T05:50:53;99828.59;;;19.32;65.72
4022;BME280;2025;48.260;16.432;2023-07-31T05:53:20;99833.59;;;19.41;65.52
4022;BME280;2025;48.260;16.432;2023-07-31T05:55:47;99838.41;;;19.50;66.90
4022;BME280;2025;48.260;16.432;2023-07-31T05:58:14;99831.56;;;19.54;65.58
4022;BME280;2025;48.260;16.432;2023-07-31T06:00:43;99829.47;;;19.75;65.34
4022;BME280;2025;48.260;16.432;2023-07-31T06:03:09;99832.69;;;19.95;64.61
4022;BME280;2025;48.260;16.432;2023-07-31T06:05:37;99817.94;;;20.05;62.64
4022;BME280;2025;48.260;16.432;2023-07-31T06:08:04;99824.34;;;20.15;62.65
4022;BME280;2025;48.260;16.432;2023-07-31T06:10:31;99819.59;;;20.29;61.29
4022;BME280;2025;48.260;16.432;2023-07-31T06:12:58;99822.63;;;20.33;58.99
4022;BME280;2025;48.260;16.432;2023-07-31T06:15:24;99816.91;;;20.29;58.83
4022;BME280;2025;48.260;16.432;2023-07-31T06:17:53;99817.13;;;20.28;57.25
4022;BME280;2025;48.260;16.432;2023-07-31T06:20:20;99828.88;;;20.15;57.27
4022;BME280;2025;48.260;16.432;2023-07-31T06:22:47;99820.25;;;20.13;57.39
4022;BME280;2025;48.260;16.432;2023-07-31T06:25:13;99833.63;;;20.13;57.97
4022;BME280;2025;48.260;16.432;2023-07-31T06:27:40;99831.66;;;20.08;59.70
4022;BME280;2025;48.260;16.432;2023-07-31T06:30:08;99821.06;;;20.02;59.26
4022;BME280;2025;48.260;16.432;2023-07-31T06:32:35;99822.81;;;20.08;60.97
4022;BME280;2025;48.260;16.432;2023-07-31T06:35:03;99825.03;;;20.11;58.19
4022;BME280;2025;48.260;16.432;2023-07-31T06:37:31;99814.13;;;20.12;58.58
4022;BME280;2025;48.260;16.432;2023-07-31T06:39:57;99822.25;;;20.17;58.91
4022;BME280;2025;48.260;16.432;2023-07-31T06:42:24;99816.56;;;20.26;59.52
4022;BME280;2025;48.260;16.432;2023-07-31T06:44:51;99820.28;;;20.25;59.11
4022;BME280;2025;48.260;16.432;2023-07-31T06:47:18;99819.47;;;20.12;60.90
4022;BME280;2025;48.260;16.432;2023-07-31T06:49:45;99823.63;;;20.08;60.71
4022;BME280;2025;48.260;16.432;2023-07-31T06:52:13;99823.63;;;20.08;58.29
4022;BME280;2025;48.260;16.432;2023-07-31T06:54:40;99817.72;;;20.18;57.99
4022;BME280;2025;48.260;16.432;2023-07-31T06:57:07;99814.81;;;20.31;55.76
4022;BME280;2025;48.260;16.432;2023-07-31T06:59:34;99814.72;;;20.38;57.47
4022;BME280;2025;48.260;16.432;2023-07-31T07:02:01;99817.63;;;20.48;56.91
4022;BME280;2025;48.260;16.432;2023-07-31T07:04:28;99811.69;;;20.70;57.26
4022;BME280;2025;48.260;16.432;2023-07-31T07:06:55;99809.94;;;20.87;53.77
4022;BME280;2025;48.260;16.432;2023-07-31T07:09:24;99819.13;;;20.91;53.20
4022;BME280;2025;48.260;16.432;2023-07-31T07:11:50;99814.78;;;21.02;51.49
4022;BME280;2025;48.260;16.432;2023-07-31T07:14:17;99820.03;;;20.97;51.96
4022;BME280;2025;48.260;16.432;2023-07-31T07:16:44;99814.22;;;21.00;51.91
4022;BME280;2025;48.260;16.432;2023-07-31T07:19:11;99812.03;;;20.85;51.01
4022;BME280;2025;48.260;16.432;2023-07-31T07:21:38;99814.00;;;21.01;52.16
4022;BME280;2025;48.260;16.432;2023-07-31T07:24:05;99812.88;;;21.26;51.87
4022;BME280;2025;48.260;16.432;2023-07-31T07:26:33;99810.38;;;21.36;49.36
4022;BME280;2025;48.260;16.432;2023-07-31T07:29:00;99805.66;;;21.26;51.77
4022;BME280;2025;48.260;16.432;2023-07-31T07:31:28;99806.81;;;21.31;51.77
4022;BME280;2025;48.260;16.432;2023-07-31T07:33:54;99811.47;;;21.35;49.56
4022;BME280;2025;48.260;16.432;2023-07-31T07:36:22;99811.91;;;21.32;46.95
4022;BME280;2025;48.260;16.432;2023-07-31T07:38:49;99808.56;;;21.25;46.80
4022;BME280;2025;48.260;16.432;2023-07-31T07:41:16;99817.84;;;21.34;51.46
4022;BME280;2025;48.260;16.432;2023-07-31T07:43:44;99806.00;;;21.18;48.59
4022;BME280;2025;48.260;16.432;2023-07-31T07:46:11;99809.06;;;21.22;48.50
4022;BME280;2025;48.260;16.432;2023-07-31T07:48:38;99807.09;;;21.17;49.45
4022;BME280;2025;48.260;16.432;2023-07-31T07:51:05;99801.59;;;21.24;49.96
4022;BME280;2025;48.260;16.432;2023-07-31T07:53:32;99797.81;;;21.37;49.99
4022;BME280;2025;48.260;16.432;2023-07-31T07:55:59;99802.09;;;21.50;49.90
4022;BME280;2025;48.260;16.432;2023-07-31T07:58:26;99800.03;;;21.68;48.91
4022;BME280;2025;48.260;16.432;2023-07-31T08:00:54;99792.81;;;21.69;48.27
4022;BME280;2025;48.260;16.432;2023-07-31T08:03:21;99802.75;;;21.40;48.48
4022;BME280;2025;48.260;16.432;2023-07-31T08:05:48;99798.06;;;21.35;49.87
4022;BME280;2025;48.260;16.432;2023-07-31T08:08:15;99799.75;;;21.53;49.18
4022;BME280;2025;48.260;16.432;2023-07-31T08:10:43;99802.78;;;21.57;47.72
4022;BME280;2025;48.260;16.432;2023-07-31T08:13:11;99797.56;;;21.38;47.99
4022;BME280;2025;48.260;16.432;2023-07-31T08:15:39;99797.88;;;21.13;48.22
4022;BME280;2025;48.260;16.432;2023-07-31T08:18:09;99803.69;;;21.22;51.38
4022;BME280;2025;48.260;16.432;2023-07-31T08:20:37;99807.53;;;21.26;48.56
4022;BME280;2025;48.260;16.432;2023-07-31T08:23:04;99797.09;;;21.13;49.13
4022;BME280;2025;48.260;16.432;2023-07-31T08:25:31;99802.34;;;21.08;48.83
4022;BME280;2025;48.260;16.432;2023-07-31T08:28:01;99796.16;;;21.19;48.51
4022;BME280;2025;48.260;16.432;2023-07-31T08:30:27;99805.16;;;21.30;48.30
4022;BME280;2025;48.260;16.432;2023-07-31T08:32:54;99793.97;;;21.33;48.39
4022;BME280;2025;48.260;16.432;2023-07-31T08:35:24;99793.94;;;21.44;49.76
4022;BME280;2025;48.260;16.432;2023-07-31T08:37:51;99803.00;;;21.55;48.51
4022;BME280;2025;48.260;16.432;2023-07-31T08:40:18;99806.19;;;21.69;49.10
4022;BME280;2025;48.260;16.432;2023-07-31T08:42:46;99800.34;;;21.72;48.64
4022;BME280;2025;48.260;16.432;2023-07-31T08:45:14;99791.28;;;21.73;46.85
4022;BME280;2025;48.260;16.432;2023-07-31T08:47:44;99793.81;;;21.80;46.51
4022;BME280;2025;48.260;16.432;2023-07-31T08:50:12;99786.06;;;22.00;47.61
4022;BME280;2025;48.260;16.432;2023-07-31T08:52:41;99792.25;;;22.18;46.33
4022;BME280;2025;48.260;16.432;2023-07-31T08:55:08;99796.34;;;22.37;47.61
4022;BME280;2025;48.260;16.432;2023-07-31T08:57:37;99786.63;;;22.53;42.63
4022;BME280;2025;48.260;16.432;2023-07-31T09:00:06;99791.03;;;22.59;45.43
4022;BME280;2025;48.260;16.432;2023-07-31T09:02:38;99788.66;;;22.63;42.87
4022;BME280;2025;48.260;16.432;2023-07-31T09:05:06;99782.59;;;22.50;42.58
4022;BME280;2025;48.260;16.432;2023-07-31T09:07:34;99767.47;;;22.44;44.94
4022;BME280;2025;48.260;16.432;2023-07-31T09:10:04;99777.16;;;22.45;44.67
4022;BME280;2025;48.260;16.432;2023-07-31T09:12:31;99772.25;;;22.42;42.34
4022;BME280;2025;48.260;16.432;2023-07-31T09:14:59;99771.88;;;22.34;43.92
4022;BME280;2025;48.260;16.432;2023-07-31T09:17:29;99768.63;;;22.32;43.50
4022;BME280;2025;48.260;16.432;2023-07-31T09:19:57;99763.28;;;22.54;42.43
4022;BME280;2025;48.260;16.432;2023-07-31T09:22:32;99768.56;;;22.87;43.27
4022;BME280;2025;48.260;16.432;2023-07-31T09:25:14;99759.09;;;22.80;44.18
4022;BME280;2025;48.260;16.432;2023-07-31T09:27:48;99764.00;;;22.88;43.41
4022;BME280;2025;48.260;16.432;2023-07-31T09:30:16;99776.31;;;22.84;39.92
4022;BME280;2025;48.260;16.432;2023-07-31T09:32:43;99767.88;;;22.97;42.30
4022;BME280;2025;48.260;16.432;2023-07-31T09:35:18;99767.63;;;23.21;39.22
4022;BME280;2025;48.260;16.432;2023-07-31T09:37:49;99762.84;;;23.50;39.91
4022;BME280;2025;48.260;16.432;2023-07-31T09:40:27;99763.53;;;23.67;39.29
4022;BME280;2025;48.260;16.432;2023-07-31T09:42:56;99755.47;;;23.94;41.47
4022;BME280;2025;48.260;16.432;2023-07-31T09:45:23;99749.09;;;24.06;39.91
4022;BME280;2025;48.260;16.432;2023-07-31T09:47:50;99753.16;;;24.13;37.42
4022;BME280;2025;48.260;16.432;2023-07-31T09:50:19;99747.28;;;23.84;38.45
4022;BME280;2025;48.260;16.432;2023-07-31T09:52:46;99737.09;;;23.86;38.74
4022;BME280;2025;48.260;16.432;2023-07-31T09:55:13;99731.03;;;24.01;37.34
4022;BME280;2025;48.260;16.432;2023-07-31T09:57:43;99747.13;;;23.96;37.72
4022;BME280;2025;48.260;16.432;2023-07-31T10:00:11;99738.22;;;23.90;37.36
4022;BME280;2025;48.260;16.432;2023-07-31T10:02:39;99737.84;;;24.14;37.66
4022;BME280;2025;48.260;16.432;2023-07-31T10:05:07;99737.06;;;24.18;40.94
4022;BME280;2025;48.260;16.432;2023-07-31T10:07:37;99735.09;;;24.04;37.02
4022;BME280;2025;48.260;16.432;2023-07-31T10:10:07;99726.44;;;23.96;40.29
4022;BME280;2025;48.260;16.432;2023-07-31T10:12:35;99726.03;;;24.20;39.63
4022;BME280;2025;48.260;16.432;2023-07-31T10:15:05;99730.81;;;24.50;36.55
4022;BME280;2025;48.260;16.432;2023-07-31T10:17:34;99722.50;;;24.57;37.25
4022;BME280;2025;48.260;16.432;2023-07-31T10:20:03;99721.22;;;24.75;35.90
4022;BME280;2025;48.260;16.432;2023-07-31T10:22:31;99714.53;;;24.88;38.15
4022;BME280;2025;48.260;16.432;2023-07-31T10:24:59;99716.19;;;24.99;36.56
4022;BME280;2025;48.260;16.432;2023-07-31T10:27:26;99711.31;;;25.01;39.40
4022;BME280;2025;48.260;16.432;2023-07-31T10:29:55;99709.72;;;24.95;36.54
4022;BME280;2025;48.260;16.432;2023-07-31T10:32:24;99704.56;;;24.78;38.05
4022;BME280;2025;48.260;16.432;2023-07-31T10:34:52;99702.75;;;25.09;37.34
4022;BME280;2025;48.260;16.432;2023-07-31T10:37:20;99704.16;;;25.32;35.55
4022;BME280;2025;48.260;16.432;2023-07-31T10:39:55;99698.69;;;25.12;37.88
4022;BME280;2025;48.260;16.432;2023-07-31T10:42:28;99699.31;;;25.60;34.97
4022;BME280;2025;48.260;16.432;2023-07-31T10:44:57;99689.09;;;25.88;34.64
4022;BME280;2025;48.260;16.432;2023-07-31T10:47:26;99683.84;;;26.32;35.33
4022;BME280;2025;48.260;16.432;2023-07-31T10:50:11;99674.59;;;26.54;34.02
4022;BME280;2025;48.260;16.432;2023-07-31T10:52:38;99672.44;;;26.45;36.71
4022;BME280;2025;48.260;16.432;2023-07-31T10:55:16;99667.63;;;26.42;37.25
4022;BME280;2025;48.260;16.432;2023-07-31T10:57:49;99665.41;;;26.55;35.35
4022;BME280;2025;48.260;16.432;2023-07-31T11:00:21;99673.19;;;26.72;34.80
4022;BME280;2025;48.260;16.432;2023-07-31T11:03:03;99668.88;;;26.70;34.64
4022;BME280;2025;48.260;16.432;2023-07-31T11:05:50;99654.16;;;26.32;32.87
4022;BME280;2025;48.260;16.432;2023-07-31T11:08:20;99649.66;;;26.77;34.21
4022;BME280;2025;48.260;16.432;2023-07-31T11:10:49;99646.41;;;27.20;33.29
4022;BME280;2025;48.260;16.432;2023-07-31T11:13:17;99635.97;;;28.01;31.87
4022;BME280;2025;48.260;16.432;2023-07-31T11:15:44;99627.72;;;27.87;31.27
4022;BME280;2025;48.260;16.432;2023-07-31T11:18:13;99633.09;;;28.16;31.50
4022;BME280;2025;48.260;16.432;2023-07-31T11:20:40;99633.78;;;28.03;30.38
4022;BME280;2025;48.260;16.432;2023-07-31T11:23:09;99640.91;;;27.64;32.68
4022;BME280;2025;48.260;16.432;2023-07-31T11:25:36;99635.34;;;27.80;31.38
4022;BME280;2025;48.260;16.432;2023-07-31T11:28:06;99633.22;;;27.77;34.63
4022;BME280;2025;48.260;16.432;2023-07-31T11:30:34;99620.38;;;27.63;34.01
4022;BME280;2025;48.260;16.432;2023-07-31T11:33:05;99616.03;;;27.62;33.00
4022;BME280;2025;48.260;16.432;2023-07-31T11:35:35;99622.03;;;27.30;34.29
4022;BME280;2025;48.260;16.432;2023-07-31T11:38:02;99621.63;;;26.68;35.67
4022;BME280;2025;48.260;16.432;2023-07-31T11:40:29;99615.00;;;26.89;32.84
4022;BME280;2025;48.260;16.432;2023-07-31T11:42:57;99613.97;;;27.20;33.50
4022;BME280;2025;48.260;16.432;2023-07-31T11:45:27;99605.88;;;27.20;33.26
4022;BME280;2025;48.260;16.432;2023-07-31T11:47:55;99598.00;;;27.58;36.39
4022;BME280;2025;48.260;16.432;2023-07-31T11:50:23;99596.75;;;27.98;34.62
4022;BME280;2025;48.260;16.432;2023-07-31T11:52:56;99599.78;;;28.15;32.69
4022;BME280;2025;48.260;16.432;2023-07-31T11:55:24;99596.03;;;28.35;33.43
4022;BME280;2025;48.260;16.432;2023-07-31T11:57:53;99590.81;;;28.39;30.47
4022;BME280;2025;48.260;16.432;2023-07-31T12:00:21;99587.28;;;28.20;29.68
4022;BME280;2025;48.260;16.432;2023-07-31T12:02:48;99577.94;;;27.83;32.28
4022;BME280;2025;48.260;16.432;2023-07-31T12:05:16;99576.91;;;27.54;30.72
4022;BME280;2025;48.260;16.432;2023-07-31T12:07:48;99577.94;;;27.29;31.53
4022;BME280;2025;48.260;16.432;2023-07-31T12:10:30;99582.53;;;26.95;33.52
4022;BME280;2025;48.260;16.432;2023-07-31T12:13:02;99570.22;;;26.78;33.61
4022;BME280;2025;48.260;16.432;2023-07-31T12:18:05;99573.34;;;26.56;34.07
4022;BME280;2025;48.260;16.432;2023-07-31T12:20:32;99569.72;;;26.76;32.52
4022;BME280;2025;48.260;16.432;2023-07-31T12:23:00;99559.16;;;27.14;31.66
4022;BME280;2025;48.260;16.432;2023-07-31T12:25:32;99560.16;;;27.52;33.01
4022;BME280;2025;48.260;16.432;2023-07-31T12:28:05;99551.50;;;27.50;33.05
4022;BME280;2025;48.260;16.432;2023-07-31T12:30:37;99550.09;;;27.58;33.54
4022;BME280;2025;48.260;16.432;2023-07-31T12:33:05;99537.06;;;27.89;31.06
4022;BME280;2025;48.260;16.432;2023-07-31T12:35:37;99535.84;;;28.01;30.78
4022;BME280;2025;48.260;16.432;2023-07-31T12:38:04;99534.88;;;27.91;32.78
4022;BME280;2025;48.260;16.432;2023-07-31T12:40:32;99524.53;;;27.45;29.88
4022;BME280;2025;48.260;16.432;2023-07-31T12:43:01;99516.59;;;27.54;30.56
4022;BME280;2025;48.260;16.432;2023-07-31T12:45:29;99524.66;;;27.83;32.51
4022;BME280;2025;48.260;16.432;2023-07-31T12:47:56;99518.97;;;27.85;30.51
4022;BME280;2025;48.260;16.432;2023-07-31T12:50:23;99502.94;;;28.12;29.75
4022;BME280;2025;48.260;16.432;2023-07-31T12:52:51;99503.44;;;28.14;29.99
4022;BME280;2025;48.260;16.432;2023-07-31T12:55:18;99505.00;;;28.21;29.56
4022;BME280;2025;48.260;16.432;2023-07-31T12:57:46;99509.56;;;28.01;32.04
4022;BME280;2025;48.260;16.432;2023-07-31T13:00:14;99512.63;;;27.94;29.05
4022;BME280;2025;48.260;16.432;2023-07-31T13:02:41;99495.38;;;27.90;29.25
4022;BME280;2025;48.260;16.432;2023-07-31T13:05:08;99494.31;;;27.62;30.89
4022;BME280;2025;48.260;16.432;2023-07-31T13:07:36;99487.75;;;27.68;31.62
4022;BME280;2025;48.260;16.432;2023-07-31T13:10:04;99489.84;;;27.52;31.23
4022;BME280;2025;48.260;16.432;2023-07-31T13:12:31;99479.88;;;27.48;33.71
4022;BME280;2025;48.260;16.432;2023-07-31T13:15:00;99468.41;;;28.04;30.11
4022;BME280;2025;48.260;16.432;2023-07-31T13:17:27;99468.06;;;28.49;29.09